Time;durP1;ratioP1;P1;durP2;ratioP2;P2;SDS_P1;SDS_P2;PMS_P1;PMS_P2;Temp;Humidity;BMP_temperature;BMP_pressure;BME280_temperature;BME280_humidity;BME280_pressure;Samples;Min_cycle;Max_cycle;Signal;HPM_P1;HPM_P2
2022/05/23 00:01:59;;;;;;;10.85;2.03;;;;;;;8.49;100.00;100027.16;5022578;28;22459;-77
2022/05/23 00:04:24;;;;;;;4.20;1.40;;;;;;;8.41;100.00;100030.72;5001327;28;20022;-78
2022/05/23 00:06:50;;;;;;;2.38;0.93;;;;;;;8.30;100.00;100026.59;5013008;28;20088;-78
2022/05/23 00:09:16;;;;;;;2.88;1.33;;;;;;;8.21;100.00;100019.63;5006223;28;20495;-81
2022/05/23 00:11:42;;;;;;;10.77;1.38;;;;;;;8.17;100.00;100021.00;4994956;28;20025;-78
2022/05/23 00:14:07;;;;;;;2.90;1.10;;;;;;;8.20;100.00;100017.13;5003597;28;20057;-78
2022/05/23 00:16:37;;;;;;;1.50;0.88;;;;;;;8.18;100.00;99997.72;4974025;28;20029;-78
2022/05/23 00:19:03;;;;;;;4.10;1.20;;;;;;;8.37;100.00;100005.28;4988364;28;20069;-78
2022/05/23 00:21:28;;;;;;;2.80;1.00;;;;;;;8.47;100.00;100007.75;5009210;28;20026;-78
2022/05/23 00:23:54;;;;;;;7.10;1.00;;;;;;;8.51;100.00;100003.69;5024278;28;20033;-79
2022/05/23 00:26:21;;;;;;;7.10;1.27;;;;;;;8.48;100.00;100004.06;5012410;28;20044;-79
2022/05/23 00:28:47;;;;;;;4.38;0.93;;;;;;;8.46;100.00;99998.88;5014685;28;20025;-77
2022/05/23 00:31:14;;;;;;;2.53;1.10;;;;;;;8.51;100.00;100001.00;4995441;28;20061;-79
2022/05/23 00:36:27;;;;;;;2.55;1.13;;;;;;;8.66;100.00;100003.75;5009134;28;20026;-78
2022/05/23 00:38:53;;;;;;;3.50;1.10;;;;;;;8.65;100.00;99996.69;5005350;28;20030;-80
2022/05/23 00:44:19;;;;;;;5.38;1.25;;;;;;;8.68;100.00;100005.22;5003772;28;20088;-80
2022/05/23 00:47:18;;;;;;;3.75;0.98;;;;;;;8.77;100.00;100003.28;5005445;28;20029;-78
2022/05/23 00:49:44;;;;;;;3.83;1.38;;;;;;;8.86;100.00;100007.53;5017348;28;20038;-81
2022/05/23 00:52:22;;;;;;;1.45;1.00;;;;;;;8.86;100.00;99990.63;4988302;28;20140;-79
2022/05/23 00:54:49;;;;;;;1.15;0.68;;;;;;;8.85;100.00;99987.13;4992256;28;20488;-78
2022/05/23 00:57:22;;;;;;;3.25;0.93;;;;;;;8.95;100.00;99997.59;4988363;28;20021;-79
2022/05/23 00:59:48;;;;;;;4.53;0.90;;;;;;;8.98;100.00;99994.53;4987268;28;20034;-81
2022/05/23 01:02:14;;;;;;;2.25;0.77;;;;;;;9.01;100.00;99984.25;5002691;28;20048;-79
2022/05/23 01:04:41;;;;;;;7.35;1.27;;;;;;;9.02;100.00;99971.69;5005089;28;20025;-80
2022/05/23 01:07:07;;;;;;;3.08;1.02;;;;;;;9.11;100.00;99977.81;4974977;28;20136;-78
2022/05/23 01:09:33;;;;;;;6.38;1.20;;;;;;;9.12;100.00;99972.22;5022549;28;20540;-78
2022/05/23 01:11:59;;;;;;;2.63;0.93;;;;;;;9.13;100.00;99975.75;5007808;28;20052;-79
2022/05/23 01:14:26;;;;;;;2.45;0.73;;;;;;;9.18;100.00;99978.69;5003039;28;20029;-78
2022/05/23 01:16:52;;;;;;;4.45;1.20;;;;;;;9.15;100.00;99969.19;5008823;28;20049;-81
2022/05/23 01:19:17;;;;;;;5.13;1.35;;;;;;;9.20;100.00;99968.63;5009527;28;20033;-78
2022/05/23 01:21:52;;;;;;;3.58;1.02;;;;;;;9.22;100.00;99967.44;5005688;28;20029;-78
2022/05/23 01:24:37;;;;;;;4.25;1.98;;;;;;;9.09;100.00;99940.44;5006397;28;20030;-79
2022/05/23 01:27:06;;;;;;;2.53;0.80;;;;;;;9.25;100.00;99969.72;5009261;28;20033;-79
2022/05/23 01:29:31;;;;;;;3.80;1.00;;;;;;;9.23;100.00;99965.56;5022640;28;20038;-77
2022/05/23 01:31:59;;;;;;;5.55;1.58;;;;;;;9.23;100.00;99966.44;4995275;28;20261;-78
2022/05/23 01:34:26;;;;;;;3.72;0.93;;;;;;;9.26;100.00;99970.56;4992804;28;20030;-77
2022/05/23 01:36:53;;;;;;;5.43;1.08;;;;;;;9.18;100.00;99952.75;5001502;28;20057;-78
2022/05/23 01:39:19;;;;;;;2.40;0.73;;;;;;;9.29;100.00;99974.72;5024314;28;20126;-78
2022/05/23 01:41:45;;;;;;;5.30;1.13;;;;;;;9.30;100.00;99979.09;4992551;28;20456;-79
2022/05/23 01:44:10;;;;;;;5.35;1.23;;;;;;;9.24;100.00;99972.63;5007874;28;20030;-77
2022/05/23 01:46:36;;;;;;;2.70;0.93;;;;;;;9.32;100.00;99985.94;4989773;28;20355;-77
2022/05/23 01:49:02;;;;;;;1.20;0.75;;;;;;;9.32;100.00;99987.78;5013254;28;20046;-80
2022/05/23 01:51:28;;;;;;;2.95;1.00;;;;;;;9.31;100.00;99983.41;5003977;28;20037;-78
2022/05/23 01:53:53;;;;;;;2.33;1.42;;;;;;;9.27;100.00;99977.59;5006763;28;20034;-77
2022/05/23 01:56:19;;;;;;;4.13;1.10;;;;;;;9.22;100.00;99969.28;5006443;28;20022;-77
2022/05/23 02:01:29;;;;;;;2.05;0.80;;;;;;;9.30;100.00;99973.72;4996043;28;20073;-79
2022/05/23 02:03:55;;;;;;;1.58;0.70;;;;;;;9.32;100.00;99974.38;5007025;28;20066;-78
2022/05/23 02:06:21;;;;;;;1.23;0.85;;;;;;;9.32;100.00;99975.19;5000601;28;20048;-78
2022/05/23 02:08:47;;;;;;;1.88;0.82;;;;;;;9.36;100.00;99972.97;5022711;28;20113;-78
2022/05/23 02:11:12;;;;;;;1.83;0.90;;;;;;;9.31;100.00;99967.31;4998283;28;20129;-78
2022/05/23 02:13:41;;;;;;;3.30;2.10;;;;;;;9.41;100.00;99975.91;5004084;28;20041;-78
2022/05/23 02:16:07;;;;;;;5.82;1.05;;;;;;;9.42;100.00;99981.09;4990418;28;20060;-77
2022/05/23 02:18:33;;;;;;;7.22;1.10;;;;;;;9.42;100.00;99981.09;5005266;28;20124;-78
2022/05/23 02:20:59;;;;;;;1.80;0.85;;;;;;;9.45;100.00;99975.38;5006324;28;20421;-78
2022/05/23 02:23:25;;;;;;;4.05;1.00;;;;;;;9.44;100.00;99973.69;5008423;28;20033;-79
2022/05/23 02:25:51;;;;;;;4.07;1.00;;;;;;;9.42;100.00;99973.06;5025260;28;20033;-78
2022/05/23 02:28:18;;;;;;;3.35;1.08;;;;;;;9.48;100.00;99979.53;4996849;28;20427;-78
2022/05/23 02:30:48;;;;;;;2.00;0.90;;;;;;;9.47;100.00;99977.84;5005591;28;20030;-79
2022/05/23 02:33:14;;;;;;;2.35;1.00;;;;;;;9.37;100.00;99966.59;5001726;28;20034;-78
2022/05/23 02:35:41;;;;;;;6.30;1.02;;;;;;;9.39;100.00;99977.94;4987374;28;20033;-78
2022/05/23 02:38:06;;;;;;;3.28;0.90;;;;;;;9.40;100.00;99985.81;5005784;28;20062;-79
2022/05/23 02:40:32;;;;;;;2.05;0.98;;;;;;;9.33;100.00;99966.13;5022987;28;20065;-79
2022/05/23 02:42:58;;;;;;;1.40;0.70;;;;;;;9.44;100.00;99984.41;4992881;28;20104;-79
2022/05/23 02:45:23;;;;;;;1.52;1.23;;;;;;;9.48;100.00;99979.53;5005949;28;20088;-78
2022/05/23 02:47:49;;;;;;;3.92;1.10;;;;;;;9.52;100.00;99979.97;4990662;28;20033;-79
2022/05/23 02:50:15;;;;;;;4.18;0.88;;;;;;;9.50;100.00;99977.50;5008966;28;20038;-79
2022/05/23 02:52:43;;;;;;;4.75;0.93;;;;;;;9.57;100.00;99972.19;4989811;28;20095;-79
2022/05/23 02:55:09;;;;;;;2.97;1.10;;;;;;;9.61;100.00;99976.16;5010832;28;20041;-77
2022/05/23 02:57:35;;;;;;;1.02;0.80;;;;;;;9.62;100.00;99970.59;5002279;28;20032;-80
2022/05/23 03:00:01;;;;;;;4.28;1.05;;;;;;;9.66;100.00;99979.94;4992773;28;20022;-79
2022/05/23 03:05:11;;;;;;;0.40;0.40;;;;;;;9.72;100.00;99977.53;5001599;28;20052;-76
2022/05/23 03:07:36;;;;;;;1.65;0.75;;;;;;;9.75;100.00;99975.28;5001445;28;20548;-78
2022/05/23 03:10:03;;;;;;;0.68;0.65;;;;;;;9.74;100.00;99984.38;5003352;28;20026;-76
2022/05/23 03:12:29;;;;;;;4.40;1.52;;;;;;;9.74;100.00;99972.78;5004700;28;20708;-77
2022/05/23 03:14:54;;;;;;;1.23;0.75;;;;;;;9.71;100.00;99968.63;4986702;28;20088;-79
2022/05/23 03:17:20;;;;;;;4.85;0.85;;;;;;;9.71;100.00;99979.34;5017384;28;20053;-78
2022/05/23 03:19:46;;;;;;;6.18;1.02;;;;;;;9.61;100.00;99962.75;4988246;28;20041;-80
2022/05/23 03:27:43;;;;;;;0.52;0.52;;;;;;;9.54;100.00;99959.97;5018393;28;20053;-79
2022/05/23 03:30:10;;;;;;;0.93;0.70;;;;;;;9.52;100.00;99961.19;5016294;28;20040;-79
2022/05/23 03:32:35;;;;;;;2.45;1.08;;;;;;;9.49;100.00;99959.69;4994762;28;20037;-81
2022/05/23 03:35:02;;;;;;;1.65;0.98;;;;;;;9.41;100.00;99951.75;5017635;28;20383;-81
2022/05/23 03:37:28;;;;;;;5.25;1.23;;;;;;;9.46;100.00;99960.91;5006405;28;20463;-80
2022/05/23 03:39:54;;;;;;;0.90;0.75;;;;;;;9.44;100.00;99964.81;5004467;28;20041;-78
2022/05/23 03:42:20;;;;;;;7.07;1.50;;;;;;;9.34;100.00;99945.47;4986718;28;20439;-80
2022/05/23 03:44:45;;;;;;;7.97;1.77;;;;;;;9.40;100.00;99964.34;5003641;28;20022;-81
2022/05/23 03:47:11;;;;;;;5.78;1.70;;;;;;;9.27;100.00;99956.16;4969755;28;20131;-79
2022/05/23 03:49:37;;;;;;;6.18;1.15;;;;;;;9.22;100.00;99954.00;5003955;28;20018;-78
2022/05/23 03:52:03;;;;;;;8.48;1.60;;;;;;;9.19;100.00;99965.13;4984823;28;20041;-78
2022/05/23 03:54:29;;;;;;;2.60;1.50;;;;;;;9.16;100.00;99970.88;4984358;28;20041;-78
2022/05/23 03:57:02;;;;;;;9.18;1.67;;;;;;;9.10;100.00;99974.25;5005207;28;20040;-80
2022/05/23 03:59:29;;;;;;;6.07;1.75;;;;;;;8.97;100.00;99968.72;5000881;28;20258;-79
2022/05/23 04:01:56;;;;;;;6.45;1.60;;;;;;;8.93;100.00;99968.25;4986213;28;20038;-78
2022/05/23 04:04:26;;;;;;;4.93;1.50;;;;;;;8.87;100.00;99970.88;5011146;28;20030;-79
2022/05/23 04:06:52;;;;;;;3.22;1.27;;;;;;;8.85;100.00;99968.34;5009024;28;20033;-82
2022/05/23 04:09:18;;;;;;;3.80;1.60;;;;;;;8.83;100.00;99970.38;4991786;28;20044;-80
2022/05/23 04:11:44;;;;;;;7.50;2.30;;;;;;;8.79;100.00;99969.09;5008248;28;20038;-79
2022/05/23 04:14:10;;;;;;;5.07;2.38;;;;;;;8.73;100.00;99957.28;4993227;28;20046;-82
2022/05/23 04:16:36;;;;;;;5.93;2.05;;;;;;;8.77;100.00;99958.56;5008716;28;20513;-79
2022/05/23 04:19:05;;;;;;;8.95;2.00;;;;;;;8.75;100.00;99957.91;5002668;28;20491;-79
2022/05/23 04:21:31;;;;;;;10.73;2.60;;;;;;;8.73;100.00;99957.28;4995260;28;20124;-78
2022/05/23 04:23:57;;;;;;;6.72;1.90;;;;;;;8.72;100.00;99949.41;4993813;28;20040;-78
2022/05/23 04:26:22;;;;;;;10.30;2.60;;;;;;;8.73;100.00;99959.09;5007578;28;20038;-78
2022/05/23 04:28:48;;;;;;;5.35;2.20;;;;;;;8.73;100.00;99962.63;4993486;28;20032;-78
2022/05/23 04:31:14;;;;;;;11.88;2.20;;;;;;;8.72;100.00;99958.25;4993219;28;20372;-78
2022/05/23 04:36:26;;;;;;;12.43;2.72;;;;;;;8.66;100.00;99950.13;5022689;28;20034;-79
2022/05/23 04:38:52;;;;;;;6.25;1.60;;;;;;;8.58;100.00;99953.72;4994574;28;20026;-83
2022/05/23 04:41:18;;;;;;;8.65;1.98;;;;;;;8.54;100.00;99947.88;5005413;28;20594;-79
2022/05/23 04:43:44;;;;;;;9.57;2.15;;;;;;;8.56;100.00;99958.44;5009997;28;20564;-78
2022/05/23 04:46:09;;;;;;;5.43;1.63;;;;;;;8.55;100.00;99954.09;4989689;28;20022;-78
2022/05/23 04:51:19;;;;;;;11.68;2.75;;;;;;;8.65;100.00;99949.28;5024183;28;20068;-79
2022/05/23 04:53:45;;;;;;;10.70;2.53;;;;;;;8.71;100.00;99956.63;4994156;28;20123;-79
2022/05/23 04:56:11;;;;;;;11.82;2.40;;;;;;;8.70;100.00;99940.69;4997524;28;20671;-78
2022/05/23 04:58:36;;;;;;;6.13;2.20;;;;;;;8.77;100.00;99952.38;5009277;28;20463;-78
2022/05/23 05:01:02;;;;;;;4.20;1.92;;;;;;;8.80;100.00;99955.50;4990514;28;20042;-78
2022/05/23 05:03:28;;;;;;;8.88;2.13;;;;;;;8.81;100.00;99956.31;5008835;28;20510;-78
2022/05/23 05:05:53;;;;;;;5.93;1.88;;;;;;;8.86;100.00;99966.50;4992029;28;20052;-81
2022/05/23 05:08:19;;;;;;;9.35;2.70;;;;;;;8.85;100.00;99954.94;5006589;28;20045;-80
2022/05/23 05:10:45;;;;;;;10.65;2.63;;;;;;;8.79;100.00;99936.94;5006639;28;20029;-79
2022/05/23 05:13:11;;;;;;;7.75;2.30;;;;;;;8.97;100.00;99960.66;5011050;28;20427;-83
2022/05/23 05:15:36;;;;;;;5.32;2.55;;;;;;;9.12;100.00;99963.38;5007753;28;20022;-78
2022/05/23 05:18:02;;;;;;;7.22;1.75;;;;;;;9.19;100.00;99954.38;5001064;28;20037;-77
2022/05/23 05:20:29;;;;;;;5.95;2.08;;;;;;;9.32;100.00;99958.28;4988187;28;20100;-81
2022/05/23 05:22:54;;;;;;;6.28;2.35;;;;;;;9.40;100.00;99958.16;4983631;28;20034;-77
2022/05/23 05:25:21;;;;;;;5.32;2.00;;;;;;;9.51;100.00;99946.94;4993531;28;20030;-78
2022/05/23 05:27:47;;;;;;;9.32;2.17;;;;;;;9.64;100.00;99955.13;5003685;28;20029;-77
2022/05/23 05:30:19;;;;;;;9.75;2.03;;;;;;;9.75;100.00;99956.50;4986229;28;20022;-78
2022/05/23 05:32:53;;;;;;;7.93;2.30;;;;;;;9.76;100.00;99960.00;5017846;28;20060;-78
2022/05/23 05:35:25;;;;;;;6.55;2.40;;;;;;;9.74;100.00;99960.22;4989992;28;20030;-77
2022/05/23 05:38:20;;;;;;;5.43;2.05;;;;;;;9.65;100.00;99948.75;4979369;28;20526;-78
2022/05/23 05:40:48;;;;;;;5.22;2.67;;;;;;;9.72;100.00;99953.38;5002064;28;20584;-77
2022/05/23 05:43:20;;;;;;;9.50;2.15;;;;;;;9.69;100.00;99950.03;5016660;28;20033;-77
2022/05/23 05:46:09;;;;;;;6.72;1.88;;;;;;;9.75;100.00;99952.97;5005400;28;20037;-78
2022/05/23 05:48:40;;;;;;;5.53;1.52;;;;;;;9.69;100.00;99949.22;5004039;28;20465;-79
2022/05/23 05:51:07;;;;;;;8.27;1.98;;;;;;;9.67;100.00;99957.44;5004532;28;20468;-79
2022/05/23 05:53:33;;;;;;;4.18;1.58;;;;;;;9.69;100.00;99958.09;5000349;28;22003;-78
2022/05/23 05:56:01;;;;;;;4.20;1.70;;;;;;;9.65;100.00;99932.63;4967341;28;20048;-77
2022/05/23 05:58:27;;;;;;;8.45;2.10;;;;;;;9.82;100.00;99948.53;4987367;28;20026;-78
2022/05/23 06:00:53;;;;;;;1.73;1.17;;;;;;;9.94;100.00;99955.03;5002252;28;20480;-78
2022/05/23 06:03:19;;;;;;;0.80;0.68;;;;;;;10.08;100.00;99948.78;5001363;28;20060;-77
2022/05/23 06:11:25;;;;;;;0.93;0.93;;;;;;;10.16;100.00;99938.91;5015387;28;20038;-78
2022/05/23 06:14:02;;;;;;;0.40;0.40;;;;;;;10.11;100.00;99943.03;4988757;28;20038;-77
2022/05/23 06:16:33;;;;;;;0.40;0.40;;;;;;;10.08;100.00;99948.78;5001271;28;20042;-78
2022/05/23 06:18:59;;;;;;;0.40;0.40;;;;;;;10.13;100.00;99945.50;4987585;28;20034;-78
2022/05/23 06:21:26;;;;;;;0.40;0.40;;;;;;;10.22;100.00;99940.84;4990496;28;20049;-78
2022/05/23 06:23:52;;;;;;;0.50;0.50;;;;;;;10.28;100.00;99937.41;4993734;28;20253;-79
2022/05/23 06:26:22;;;;;;;0.40;0.40;;;;;;;10.45;100.00;99949.53;4992548;28;20037;-78
2022/05/23 06:28:49;;;;;;;0.43;0.43;;;;;;;10.51;100.00;99926.44;4991608;28;20022;-78
2022/05/23 06:31:15;;;;;;;0.40;0.40;;;;;;;10.67;100.00;99941.44;5007491;28;20428;-80
2022/05/23 06:33:41;;;;;;;0.40;0.40;;;;;;;10.93;100.00;99943.47;5023016;28;20022;-78
2022/05/23 06:36:08;;;;;;;0.60;0.60;;;;;;;12.11;100.00;99949.47;5010430;28;20124;-79
2022/05/23 06:38:36;;;;;;;0.40;0.40;;;;;;;12.35;100.00;99950.72;4990860;28;20518;-79
2022/05/23 06:41:03;;;;;;;0.70;0.70;;;;;;;12.08;100.00;99957.97;5004531;28;20496;-81
2022/05/23 06:43:29;;;;;;;0.40;0.40;;;;;;;11.87;100.00;99945.50;4988379;28;20522;-81
2022/05/23 06:45:55;;;;;;;0.40;0.40;;;;;;;11.59;100.00;99950.97;4999051;28;20022;-76
2022/05/23 06:48:22;;;;;;;0.40;0.40;;;;;;;11.44;100.00;99949.28;4999469;28;20054;-80
2022/05/23 06:50:50;;;;;;;0.40;0.40;;;;;;;11.72;100.00;99951.00;4990551;28;20299;-77
2022/05/23 06:53:19;;;;;;;0.40;0.40;;;;;;;12.04;100.00;99938.72;5003689;28;20037;-77
2022/05/23 06:55:45;;;;;;;0.50;0.50;;;;;;;12.37;100.00;99910.94;4998933;28;20037;-79
2022/05/23 06:58:14;;;;;;;0.40;0.40;;;;;;;12.80;100.00;99945.50;4998441;28;20021;-77
2022/05/23 07:00:58;;;;;;;0.47;0.47;;;;;;;12.90;100.00;99953.19;4983839;28;20045;-79
2022/05/23 07:03:25;;;;;;;0.40;0.40;;;;;;;12.83;100.00;99957.75;4999365;28;20063;-78
2022/05/23 07:14:10;;;;;;;0.55;0.55;;;;;;;15.19;100.00;99943.19;4997563;28;20117;-77
2022/05/23 07:16:36;;;;;;;0.60;0.60;;;;;;;18.06;88.89;99959.00;5006902;28;20097;-76
2022/05/23 07:19:04;;;;;;;0.45;0.45;;;;;;;17.93;86.74;99945.69;4984677;28;20029;-77
2022/05/23 07:21:31;;;;;;;0.40;0.40;;;;;;;16.48;90.91;99948.25;5000349;28;20140;-75
2022/05/23 07:23:58;;;;;;;0.50;0.50;;;;;;;15.73;93.57;99946.91;4989132;28;20032;-77
2022/05/23 07:26:27;;;;;;;0.50;0.50;;;;;;;15.67;96.11;99944.25;4984754;28;20056;-75
2022/05/23 07:28:53;;;;;;;0.40;0.40;;;;;;;15.61;98.12;99952.25;5001672;28;20472;-77
2022/05/23 07:31:19;;;;;;;1.10;0.80;;;;;;;15.35;97.46;99953.41;5004590;28;20089;-75
2022/05/23 07:33:45;;;;;;;0.68;0.68;;;;;;;15.40;96.88;99944.59;5016024;28;20113;-77
2022/05/23 07:36:12;;;;;;;0.50;0.50;;;;;;;16.31;94.94;99955.44;5013341;28;20042;-74
2022/05/23 07:38:37;;;;;;;0.52;0.52;;;;;;;16.27;95.22;99952.34;5000522;28;20028;-76
2022/05/23 07:41:06;;;;;;;0.50;0.50;;;;;;;16.23;95.24;99940.34;5003664;28;20144;-77
2022/05/23 07:43:35;;;;;;;0.70;0.70;;;;;;;16.11;96.59;99948.44;5004469;28;20076;-76
2022/05/23 07:46:09;;;;;;;0.70;0.70;;;;;;;15.83;94.42;99946.34;4991030;28;20141;-76
2022/05/23 07:48:36;;;;;;;1.27;0.77;;;;;;;15.33;95.77;99941.97;4998848;28;20030;-78
2022/05/23 07:51:02;;;;;;;1.23;1.13;;;;;;;14.96;97.63;99949.25;5005433;28;20061;-80
2022/05/23 08:01:40;;;;;;;1.38;0.98;;;;;;;14.47;100.00;99953.63;5019071;28;20040;-78
2022/05/23 08:04:08;;;;;;;1.30;1.08;;;;;;;14.45;100.00;99955.75;5005530;28;20411;-78
2022/05/23 08:06:34;;;;;;;3.17;1.10;;;;;;;14.35;100.00;99950.00;5025646;28;20029;-78
2022/05/23 08:08:59;;;;;;;2.97;1.30;;;;;;;14.28;100.00;99947.34;5000939;28;20128;-78
2022/05/23 08:11:25;;;;;;;3.75;1.35;;;;;;;14.29;100.00;99947.13;5007034;28;20042;-77
2022/05/23 08:13:54;;;;;;;3.38;1.50;;;;;;;14.28;100.00;99948.16;4977617;28;20128;-80
2022/05/23 08:16:20;;;;;;;1.50;0.95;;;;;;;14.18;100.00;99934.31;4998976;28;20038;-77
2022/05/23 08:18:45;;;;;;;1.42;1.10;;;;;;;14.37;100.00;99945.19;4973906;28;20069;-78
2022/05/23 08:21:11;;;;;;;2.60;1.45;;;;;;;14.69;99.92;99936.00;4991155;28;20073;-80
2022/05/23 08:23:36;;;;;;;1.38;1.00;;;;;;;15.16;97.25;99933.63;5004769;28;20052;-80
2022/05/23 08:26:02;;;;;;;4.38;1.88;;;;;;;15.48;94.02;99932.59;4990889;28;20042;-78
2022/05/23 08:28:28;;;;;;;2.53;1.10;;;;;;;15.79;92.86;99935.13;5024331;28;20042;-79
2022/05/23 08:30:55;;;;;;;2.22;1.20;;;;;;;16.26;91.30;99929.84;5008283;28;20048;-79
2022/05/23 08:33:20;;;;;;;4.22;1.50;;;;;;;18.07;83.47;99933.41;5025338;28;20030;-76
2022/05/23 08:35:48;;;;;;;4.53;1.80;;;;;;;18.21;84.73;99931.22;4987796;28;20337;-83
2022/05/23 08:38:14;;;;;;;1.85;1.08;;;;;;;18.42;80.58;99929.69;4992948;28;20033;-83
2022/05/23 08:40:42;;;;;;;2.85;1.15;;;;;;;18.44;80.50;99894.84;5005398;28;20034;-83
2022/05/23 08:43:09;;;;;;;4.07;1.20;;;;;;;18.20;79.43;99932.28;5005979;28;20116;-82
2022/05/23 08:45:39;;;;;;;1.95;1.10;;;;;;;17.61;81.70;99923.59;5019451;28;20049;-79
2022/05/23 08:48:17;;;;;;;4.95;1.15;;;;;;;17.27;84.39;99928.88;4992937;28;20139;-84
2022/05/23 08:51:02;;;;;;;4.10;1.75;;;;;;;17.49;83.63;99931.75;5004957;28;20037;-80
2022/05/23 08:53:39;;;;;;;3.00;1.45;;;;;;;19.71;77.79;99931.19;5005856;28;20040;-80
2022/05/23 08:56:15;;;;;;;2.08;1.52;;;;;;;22.60;69.12;99917.59;5018525;28;20026;-80
2022/05/23 08:58:52;;;;;;;5.53;1.75;;;;;;;23.36;65.82;99915.75;5001554;28;20042;-81
2022/05/23 09:01:21;;;;;;;5.22;1.55;;;;;;;25.02;61.59;99921.38;5007313;28;20379;-78
2022/05/23 09:03:55;;;;;;;4.85;2.03;;;;;;;21.34;66.92;99924.50;5007673;28;20026;-79
2022/05/23 09:06:28;;;;;;;3.08;1.00;;;;;;;17.72;77.20;99925.41;4989845;28;20199;-78
2022/05/23 09:08:57;;;;;;;0.90;0.60;;;;;;;14.97;87.61;99914.91;5002386;28;20046;-80
2022/05/23 09:11:46;;;;;;;0.43;0.43;;;;;;;13.00;97.62;99929.28;5004520;28;20037;-79
2022/05/23 09:14:14;;;;;;;0.30;0.30;;;;;;;11.92;100.00;99934.13;4986661;28;20030;-81
2022/05/23 09:16:43;;;;;;;0.30;0.30;;;;;;;11.36;100.00;99935.19;4990795;28;20254;-80
2022/05/23 09:19:17;;;;;;;0.40;0.40;;;;;;;11.09;100.00;99934.25;5002171;28;20033;-78
2022/05/23 09:24:42;;;;;;;0.55;0.55;;;;;;;11.05;100.00;99924.88;5009817;28;20044;-80
2022/05/23 09:27:35;;;;;;;0.40;0.40;;;;;;;11.19;100.00;99931.97;4994609;28;20033;-79
2022/05/23 09:30:02;;;;;;;2.38;0.80;;;;;;;11.43;100.00;99944.09;5006608;28;20487;-79
2022/05/23 09:32:53;;;;;;;0.40;0.40;;;;;;;11.57;100.00;99942.28;5000380;28;20577;-78
2022/05/23 09:35:20;;;;;;;0.50;0.50;;;;;;;11.98;100.00;99942.19;5004963;28;20046;-79
2022/05/23 09:38:15;;;;;;;0.50;0.50;;;;;;;12.72;100.00;99943.84;5024189;28;20022;-79
2022/05/23 09:40:41;;;;;;;1.02;0.60;;;;;;;13.85;100.00;99945.34;5004595;28;20041;-83
2022/05/23 09:49:21;;;;;;;1.00;1.00;;;;;;;21.21;68.51;99936.72;4991803;28;20120;-81
2022/05/23 09:51:58;;;;;;;0.90;0.90;;;;;;;22.36;64.26;99942.00;5003039;28;20137;-84
2022/05/23 09:54:27;;;;;;;0.80;0.80;;;;;;;23.39;61.80;99936.31;4987223;28;20021;-82
2022/05/23 09:56:54;;;;;;;0.70;0.70;;;;;;;24.10;58.89;99926.88;4989001;28;20061;-82
2022/05/23 09:59:28;;;;;;;0.55;0.55;;;;;;;23.18;61.03;99919.97;4988099;28;20096;-82
2022/05/23 10:01:56;;;;;;;0.50;0.50;;;;;;;20.74;67.38;99932.09;5003082;28;20060;-82
2022/05/23 10:04:25;;;;;;;0.50;0.50;;;;;;;19.59;73.50;99933.19;5004016;28;20037;-83
2022/05/23 10:06:51;;;;;;;0.95;0.60;;;;;;;19.99;70.87;99926.56;4999133;28;20034;-82
2022/05/23 10:09:37;;;;;;;0.50;0.50;;;;;;;19.08;70.35;99930.69;5002458;28;20034;-84
2022/05/23 10:12:08;;;;;;;0.60;0.60;;;;;;;20.81;68.59;99925.31;5022870;28;20022;-83
2022/05/23 10:14:46;;;;;;;0.63;0.63;;;;;;;21.69;64.59;99927.34;5015232;28;20080;-83
2022/05/23 10:17:30;;;;;;;0.70;0.70;;;;;;;20.66;66.31;99921.66;5021242;28;20112;-82
2022/05/23 10:20:23;;;;;;;0.90;0.90;;;;;;;22.38;61.56;99937.03;5000650;28;20034;-84
2022/05/23 10:23:21;;;;;;;0.70;0.70;;;;;;;23.12;62.04;99932.03;4990272;28;20545;-81
2022/05/23 10:26:19;;;;;;;1.15;1.05;;;;;;;23.90;56.50;99931.41;5001063;28;20045;-81
2022/05/23 10:28:53;;;;;;;1.38;1.27;;;;;;;25.30;56.21;99916.13;4988654;28;20092;-81
2022/05/23 10:31:31;;;;;;;1.10;1.00;;;;;;;24.89;53.61;99919.31;4981501;28;20026;-82
2022/05/23 10:34:11;;;;;;;0.77;0.77;;;;;;;24.23;55.47;99919.91;4991179;28;20464;-80
2022/05/23 10:36:38;;;;;;;1.88;0.90;;;;;;;23.70;56.38;99909.53;4985662;28;20047;-80
2022/05/23 10:42:18;;;;;;;1.02;0.90;;;;;;;22.96;55.77;99905.72;5019656;28;20026;-82
2022/05/23 10:44:51;;;;;;;2.83;1.05;;;;;;;24.20;52.79;99893.03;4998846;28;20030;-81
2022/05/23 10:47:35;;;;;;;1.35;1.00;;;;;;;24.63;47.47;99912.44;5005643;28;20072;-81
2022/05/23 10:50:21;;;;;;;2.40;1.17;;;;;;;25.35;47.18;99916.06;5003752;28;20054;-82
2022/05/23 10:53:08;;;;;;;1.95;1.10;;;;;;;24.78;49.31;99906.78;4982368;28;20066;-87
2022/05/23 10:56:03;;;;;;;1.95;0.82;;;;;;;22.57;55.13;99911.84;5024032;28;20033;-83
2022/05/23 10:58:36;;;;;;;1.30;0.93;;;;;;;20.40;61.64;99905.91;4996673;28;20026;-83
2022/05/23 11:01:20;;;;;;;0.80;0.80;;;;;;;19.19;66.90;99890.75;5004851;28;20431;-79
2022/05/23 11:03:54;;;;;;;2.85;1.05;;;;;;;19.45;65.83;99894.59;5020624;28;20040;-85
2022/05/23 11:06:26;;;;;;;1.88;1.13;;;;;;;21.65;56.92;99896.19;4998090;28;20034;-81
2022/05/23 11:09:29;;;;;;;3.65;1.35;;;;;;;22.79;53.72;99893.16;5006758;28;20049;-84
2022/05/23 11:12:22;;;;;;;2.20;1.30;;;;;;;26.51;48.74;99897.25;5015690;28;20089;-82
2022/05/23 11:14:48;;;;;;;0.90;0.70;;;;;;;24.02;50.52;99889.84;5002060;28;20037;-87
2022/05/23 11:17:43;;;;;;;1.50;0.70;;;;;;;21.11;49.47;99871.06;5011464;28;20038;-82
2022/05/23 11:20:19;;;;;;;2.55;1.10;;;;;;;19.06;48.48;99891.13;5023863;28;20022;-81
2022/05/23 11:22:58;;;;;;;1.98;1.33;;;;;;;18.29;49.64;99892.72;5012504;28;20681;-82
2022/05/23 11:25:29;;;;;;;1.08;1.02;;;;;;;19.94;44.98;99904.66;4977696;28;20047;-87
2022/05/23 11:34:13;;;;;;;0.60;0.60;;;;;;;17.11;53.84;99909.53;5015260;28;20479;-82
2022/05/23 11:37:01;;;;;;;0.70;0.70;;;;;;;16.42;54.94;99893.06;5027809;28;20025;-82
2022/05/23 11:39:50;;;;;;;1.00;0.90;;;;;;;16.34;55.02;99900.72;5015719;28;20030;-86
2022/05/23 11:42:49;;;;;;;1.65;1.00;;;;;;;17.49;57.56;99889.13;5002592;28;20045;-85
2022/05/23 11:48:47;;;;;;;1.25;1.10;;;;;;;24.00;38.84;99894.00;5013100;28;20034;-81
2022/05/23 11:51:27;;;;;;;2.17;0.90;;;;;;;25.19;34.73;99889.84;5009793;28;20049;-86
2022/05/23 11:53:55;;;;;;;0.90;0.90;;;;;;;25.54;31.98;99893.25;4988290;28;20022;-88
2022/05/23 11:56:42;;;;;;;1.10;0.90;;;;;;;25.89;31.47;99880.94;4992722;28;20042;-81
2022/05/23 11:59:11;;;;;;;0.88;0.80;;;;;;;26.49;30.15;99888.47;5023142;28;20180;-82
2022/05/23 12:01:37;;;;;;;1.85;0.57;;;;;;;25.02;31.35;99874.63;5009294;28;20025;-84
2022/05/23 12:04:03;;;;;;;0.82;0.82;;;;;;;25.64;30.46;99860.06;5025304;28;20101;-81
2022/05/23 12:06:30;;;;;;;1.00;0.90;;;;;;;26.10;30.19;99873.16;5009713;28;20069;-84
2022/05/23 12:08:59;;;;;;;0.85;0.82;;;;;;;26.85;28.93;99874.03;5011594;28;20025;-84
2022/05/23 12:11:27;;;;;;;1.63;1.10;;;;;;;27.53;26.83;99878.69;5012802;28;20461;-84
2022/05/23 12:13:58;;;;;;;2.33;0.90;;;;;;;27.93;27.44;99867.03;5000993;28;20026;-83
2022/05/23 12:16:37;;;;;;;1.13;0.90;;;;;;;28.17;26.38;99869.47;4996315;28;20083;-86
2022/05/23 12:19:06;;;;;;;0.80;0.80;;;;;;;28.01;26.83;99869.06;5010827;28;20045;-83
2022/05/23 12:21:34;;;;;;;2.25;0.90;;;;;;;27.89;26.45;99868.78;5015993;28;20021;-83
2022/05/23 12:24:25;;;;;;;1.35;0.90;;;;;;;27.91;25.48;99867.34;5003876;28;20030;-80
2022/05/23 12:26:56;;;;;;;0.75;0.65;;;;;;;25.28;28.62;99868.84;5007381;28;20476;-82
2022/05/23 12:29:34;;;;;;;2.55;1.05;;;;;;;26.87;27.00;99867.09;5005915;28;20018;-80
2022/05/23 12:32:18;;;;;;;2.67;0.57;;;;;;;22.41;33.73;99856.25;5022047;28;20551;-83
2022/05/23 12:34:51;;;;;;;4.22;1.00;;;;;;;25.29;30.87;99875.16;4990333;28;20395;-83
2022/05/23 12:37:20;;;;;;;2.58;1.10;;;;;;;27.42;29.34;99859.94;4982121;28;20041;-82
2022/05/23 12:40:14;;;;;;;1.30;1.10;;;;;;;28.45;26.05;99862.69;4985170;28;20030;-84
2022/05/23 12:42:58;;;;;;;0.50;0.50;;;;;;;25.68;30.04;99861.13;4958054;28;20376;-85
2022/05/23 12:45:52;;;;;;;2.15;1.00;;;;;;;23.17;35.26;99851.66;4985248;28;20414;-80
2022/05/23 12:48:33;;;;;;;2.83;0.70;;;;;;;23.54;34.97;99850.38;4971807;28;20182;-82
2022/05/23 12:51:11;;;;;;;2.85;1.27;;;;;;;26.62;28.36;99854.63;4983212;28;20109;-83
2022/05/23 12:54:00;;;;;;;2.33;1.10;;;;;;;28.39;26.54;99854.81;4970310;28;20382;-83